createdAt,value
2023-02-11T00:00:19.529Z,102440.97
2023-02-11T00:03:22.517Z,102438.41
2023-02-11T00:06:28.192Z,102434.38
2023-02-11T00:09:31.944Z,102427.03
2023-02-11T00:12:36.176Z,102419.72
2023-02-11T00:15:39.104Z,102417.75
2023-02-11T00:18:42.180Z,102418.28
2023-02-11T00:21:45.166Z,102414.81
2023-02-11T00:24:48.852Z,102423.66
2023-02-11T00:27:52.449Z,102419.81
2023-02-11T00:30:58.834Z,102407.59
2023-02-11T00:34:02.069Z,102416.53
2023-02-11T00:37:05.698Z,102413.09
2023-02-11T00:40:09.622Z,102410.91
2023-02-11T00:43:12.756Z,102411.94
2023-02-11T00:46:16.365Z,102406.66
2023-02-11T00:49:19.516Z,102401.38
2023-02-11T00:52:22.552Z,102397.94
2023-02-11T00:55:25.386Z,102392.78
2023-02-11T00:58:30.099Z,102387.22
2023-02-11T01:01:33.126Z,102388.06
2023-02-11T01:04:36.198Z,102389.19
2023-02-11T01:07:39.209Z,102393.06
2023-02-11T01:10:44.203Z,102388.81
2023-02-11T01:13:48.493Z,102390.31
2023-02-11T01:16:51.340Z,102391.31
2023-02-11T01:19:54.377Z,102386.19
2023-02-11T01:22:57.260Z,102382.16
2023-02-11T01:26:00.180Z,102376.06
2023-02-11T01:29:03.173Z,102375.75
2023-02-11T01:32:06.141Z,102376.91
2023-02-11T01:35:09.373Z,102370.75
2023-02-11T01:38:20.595Z,102374.31
2023-02-11T01:41:24.370Z,102370.91
2023-02-11T01:44:36.718Z,102379.81
2023-02-11T01:47:40.345Z,102377.22
2023-02-11T01:50:46.996Z,102367.28
2023-02-11T01:54:09.430Z,102374.34
2023-02-11T01:57:25.137Z,102369.25
2023-02-11T02:00:34.557Z,102372.94
2023-02-11T02:03:38.566Z,102377.28
2023-02-11T02:06:46.056Z,102372.81
2023-02-11T02:09:53.436Z,102377.50
2023-02-11T02:12:56.479Z,102370.91
2023-02-11T02:16:01.808Z,102366.84
2023-02-11T02:19:48.010Z,102365.84
2023-02-11T02:22:59.824Z,102367.69
2023-02-11T02:26:33.768Z,102363.69
2023-02-11T02:29:57.897Z,102352.50
2023-02-11T02:33:21.576Z,102345.31
2023-02-11T02:36:44.436Z,102345.63
2023-02-11T02:39:49.263Z,102340.47
2023-02-11T02:42:53.182Z,102342.97
2023-02-11T02:45:56.158Z,102345.63
2023-02-11T02:49:00.056Z,102339.50
2023-02-11T02:52:22.033Z,102337.75
2023-02-11T02:55:57.182Z,102329.19
2023-02-11T02:59:21.765Z,102332.88
2023-02-11T03:02:34.255Z,102331.75
2023-02-11T03:05:58.587Z,102325.50
2023-02-11T03:09:10.316Z,102320.66
2023-02-11T03:12:15.182Z,102318.41
2023-02-11T03:15:19.210Z,102315.63
2023-02-11T03:18:25.343Z,102309.72
2023-02-11T03:21:30.378Z,102313.12
2023-02-11T03:24:39.442Z,102311.13
2023-02-11T03:27:47.823Z,102304.09
2023-02-11T03:30:57.178Z,102301.91
2023-02-11T03:34:14.706Z,102292.72
2023-02-11T03:37:24.744Z,102301.84
2023-02-11T03:40:30.344Z,102287.84
2023-02-11T03:43:41.722Z,102288.44
2023-02-11T03:46:49.167Z,102281.78
2023-02-11T03:49:55.205Z,102281.78
2023-02-11T03:52:59.717Z,102283.16
2023-02-11T03:56:06.827Z,102273.22
2023-02-11T03:59:09.763Z,102276.94
2023-02-11T04:02:12.922Z,102268.31
2023-02-11T04:05:16.650Z,102276.44
2023-02-11T04:08:19.633Z,102266.31
2023-02-11T04:11:22.431Z,102264.72
2023-02-11T04:14:25.375Z,102255.78
2023-02-11T04:17:28.171Z,102259.56
2023-02-11T04:20:31.150Z,102257.09
2023-02-11T04:23:34.025Z,102257.41
2023-02-11T04:26:36.922Z,102248.31
2023-02-11T04:29:39.832Z,102250.87
2023-02-11T04:32:42.668Z,102240.88
2023-02-11T04:35:45.667Z,102239.34
2023-02-11T04:38:48.622Z,102236.94
2023-02-11T04:41:51.478Z,102241.34
2023-02-11T04:44:54.383Z,102252.66
2023-02-11T04:47:57.211Z,102241.59
2023-02-11T04:51:00.259Z,102236.59
2023-02-11T04:54:03.054Z,102240.13
2023-02-11T04:57:06.262Z,102239.59
2023-02-11T05:00:10.330Z,102238.72
2023-02-11T05:03:13.682Z,102232.78
2023-02-11T05:06:16.421Z,102230.28
2023-02-11T05:09:22.685Z,102237.16
2023-02-11T05:12:25.626Z,102197.22
2023-02-11T05:15:28.984Z,102223.69
2023-02-11T05:18:31.777Z,102239.84
2023-02-11T05:21:34.580Z,102244.22
2023-02-11T05:24:37.473Z,102247.69
2023-02-11T05:27:40.336Z,102249.44
2023-02-11T05:30:43.275Z,102257.16
2023-02-11T05:33:49.170Z,102250.34
2023-02-11T05:36:58.109Z,102257.22
2023-02-11T05:40:00.909Z,102245.25
2023-02-11T05:43:03.792Z,102243.56
2023-02-11T05:46:06.992Z,102253.00
2023-02-11T05:49:14.443Z,102242.72
2023-02-11T05:52:20.918Z,102247.81
2023-02-11T05:55:24.438Z,102235.84
2023-02-11T05:58:27.645Z,102249.41
2023-02-11T06:01:30.732Z,102245.16
2023-02-11T06:04:33.902Z,102245.03
2023-02-11T06:07:36.683Z,102237.31
2023-02-11T06:10:42.720Z,102234.72
2023-02-11T06:13:48.549Z,102226.16
2023-02-11T06:16:51.424Z,102226.06
2023-02-11T06:19:54.450Z,102226.78
2023-02-11T06:22:57.508Z,102225.91
2023-02-11T06:26:05.579Z,102218.03
2023-02-11T06:29:08.584Z,102210.13
2023-02-11T06:32:28.156Z,102212.47
2023-02-11T06:35:35.630Z,102208.94
2023-02-11T06:38:38.944Z,102215.16
2023-02-11T06:41:41.804Z,102205.16
2023-02-11T06:44:44.857Z,102207.47
2023-02-11T06:47:51.684Z,102204.72
2023-02-11T06:50:54.546Z,102199.22
2023-02-11T06:53:57.436Z,102195.13
2023-02-11T06:57:00.441Z,102204.69
2023-02-11T07:00:03.746Z,102198.41
2023-02-11T07:03:09.301Z,102201.41
2023-02-11T07:06:14.851Z,102198.38
2023-02-11T07:09:20.758Z,102194.53
2023-02-11T07:12:23.608Z,102177.81
2023-02-11T07:15:26.666Z,102172.19
2023-02-11T07:18:29.706Z,102181.12
2023-02-11T07:21:32.598Z,102172.19
2023-02-11T07:24:35.828Z,102166.34
2023-02-11T07:27:38.700Z,102175.69
2023-02-11T07:30:44.625Z,102165.44
2023-02-11T07:33:50.224Z,102165.06
2023-02-11T07:36:53.049Z,102135.06
2023-02-11T07:39:56.064Z,102167.06
2023-02-11T07:42:58.895Z,102174.22
2023-02-11T07:46:06.357Z,102173.72
2023-02-11T07:49:09.660Z,102176.91
2023-02-11T07:52:12.604Z,102180.06
2023-02-11T07:55:15.710Z,102186.56
2023-02-11T07:58:18.660Z,102187.13
2023-02-11T08:01:28.703Z,102183.41
2023-02-11T08:04:33.304Z,102154.41
2023-02-11T08:07:37.317Z,102183.78
2023-02-11T08:10:43.264Z,102174.09
2023-02-11T08:13:46.675Z,102172.91
2023-02-11T08:16:49.521Z,102172.47
2023-02-11T08:19:53.098Z,102162.50
2023-02-11T08:22:59.450Z,102154.41
2023-02-11T08:26:05.052Z,102164.78
2023-02-11T08:29:12.457Z,102162.03
2023-02-11T08:32:15.434Z,102168.38
2023-02-11T08:35:18.652Z,102160.62
2023-02-11T08:38:23.326Z,102168.63
2023-02-11T08:41:26.924Z,102171.94
2023-02-11T08:44:30.322Z,102173.56
2023-02-11T08:47:33.650Z,102167.06
2023-02-11T08:50:40.169Z,102176.56
2023-02-11T08:53:45.948Z,102174.25
2023-02-11T08:56:51.589Z,102170.59
2023-02-11T08:59:54.706Z,102175.78
2023-02-11T09:02:57.848Z,102172.63
2023-02-11T09:06:06.001Z,102170.59
2023-02-11T09:09:12.440Z,102166.50
2023-02-11T09:12:15.498Z,102159.47
2023-02-11T09:15:18.363Z,102158.78
2023-02-11T09:18:21.347Z,102164.69
2023-02-11T09:21:24.468Z,102150.78
2023-02-11T09:24:27.308Z,102164.25
2023-02-11T09:27:30.122Z,102153.94
2023-02-11T09:30:33.185Z,102141.13
2023-02-11T09:33:42.408Z,102118.34
2023-02-11T09:36:45.279Z,102122.88
2023-02-11T09:39:48.058Z,102135.75
2023-02-11T09:43:16.679Z,102128.56
2023-02-11T09:46:21.011Z,102130.53
2023-02-11T09:49:48.378Z,102125.97
2023-02-11T09:53:03.618Z,102129.16
2023-02-11T09:56:12.904Z,102132.00
2023-02-11T09:59:20.478Z,102123.44
2023-02-11T10:03:08.000Z,102125.69
2023-02-11T10:06:38.559Z,102126.91
2023-02-11T10:10:02.978Z,102110.91
2023-02-11T10:13:17.988Z,102109.22
2023-02-11T10:16:31.795Z,102118.69
2023-02-11T10:19:57.631Z,102107.34
2023-02-11T10:23:32.834Z,102107.34
2023-02-11T10:26:37.680Z,102108.16
2023-02-11T10:30:07.575Z,102100.38
2023-02-11T10:33:28.766Z,102100.72
2023-02-11T10:36:37.270Z,102096.41
2023-02-11T10:39:41.422Z,102099.25
2023-02-11T10:42:49.346Z,102095.19
2023-02-11T10:45:53.466Z,102094.00
2023-02-11T10:48:56.590Z,102081.84
2023-02-11T10:52:35.226Z,102076.47
2023-02-11T10:55:38.197Z,102067.63
2023-02-11T10:58:46.805Z,102067.37
2023-02-11T11:02:06.210Z,102061.13
2023-02-11T11:05:21.107Z,102059.44
2023-02-11T11:08:47.581Z,102050.84
2023-02-11T11:11:54.174Z,102017.41
2023-02-11T11:15:04.068Z,102036.19
2023-02-11T11:18:23.203Z,102033.06
2023-02-11T11:21:41.885Z,102026.94
2023-02-11T11:24:46.882Z,102034.22
2023-02-11T11:27:54.462Z,102021.88
2023-02-11T11:30:59.050Z,101999.03
2023-02-11T11:34:17.694Z,102004.62
2023-02-11T11:37:24.273Z,102002.16
2023-02-11T11:40:32.538Z,101993.31
2023-02-11T11:43:37.814Z,101997.22
2023-02-11T11:46:42.986Z,101988.78
2023-02-11T11:49:58.330Z,101974.66
2023-02-11T11:53:19.746Z,101983.31
2023-02-11T11:56:25.693Z,101990.41
2023-02-11T11:59:29.053Z,101964.66
2023-02-11T12:03:25.585Z,101955.56
2023-02-11T12:06:54.079Z,101911.44
2023-02-11T12:10:15.554Z,101941.84
2023-02-11T12:13:21.374Z,101948.75
2023-02-11T12:16:59.003Z,101937.97
2023-02-11T12:20:19.768Z,101922.31
2023-02-11T12:24:04.500Z,101918.72
2023-02-11T12:27:45.716Z,101908.53
2023-02-11T12:30:57.593Z,101918.28
2023-02-11T12:34:25.752Z,101897.16
2023-02-11T12:37:58.256Z,101882.62
2023-02-11T12:41:16.404Z,101884.09
2023-02-11T12:44:52.049Z,101875.09
2023-02-11T12:47:58.018Z,101873.94
2023-02-11T12:51:22.826Z,101872.97
2023-02-11T12:54:46.775Z,101867.53
2023-02-11T12:57:51.034Z,101858.44
2023-02-11T13:01:24.455Z,101858.00
2023-02-11T13:04:34.692Z,101862.69
2023-02-11T13:07:41.208Z,101862.44
2023-02-11T13:10:49.044Z,101861.88
2023-02-11T13:14:06.941Z,101850.66
2023-02-11T13:17:34.433Z,101864.09
2023-02-11T13:20:50.257Z,101852.88
2023-02-11T13:24:30.127Z,101855.03
2023-02-11T13:27:38.363Z,101851.94
2023-02-11T13:30:47.481Z,101833.66
2023-02-11T13:33:50.439Z,101833.31
2023-02-11T13:36:57.411Z,101831.53
2023-02-11T13:40:06.285Z,101832.25
2023-02-11T13:43:28.673Z,101830.22
2023-02-11T13:46:50.782Z,101827.03
2023-02-11T13:49:54.639Z,101848.47
2023-02-11T13:52:59.538Z,101838.69
2023-02-11T13:56:09.126Z,101839.78
2023-02-11T13:59:33.626Z,101849.78
2023-02-11T14:02:55.880Z,101854.91
2023-02-11T14:06:29.474Z,101861.03
2023-02-11T14:09:38.747Z,101868.66
2023-02-11T14:12:41.567Z,101851.94
2023-02-11T14:15:46.891Z,101848.09
2023-02-11T14:18:50.253Z,101858.00
2023-02-11T14:21:53.862Z,101857.25
2023-02-11T14:24:59.878Z,101850.06
2023-02-11T14:28:21.376Z,101858.66
2023-02-11T14:31:34.324Z,101837.81
2023-02-11T14:35:02.879Z,101840.09
2023-02-11T14:38:05.738Z,101849.25
2023-02-11T14:41:18.908Z,101848.47
2023-02-11T14:44:24.488Z,101842.34
2023-02-11T14:47:37.376Z,101848.03
2023-02-11T14:50:46.773Z,101843.22
2023-02-11T14:53:51.709Z,101837.37
2023-02-11T14:57:08.545Z,101827.22
2023-02-11T15:00:20.413Z,101826.37
2023-02-11T15:03:29.615Z,101813.72
2023-02-11T15:06:43.263Z,101820.97
2023-02-11T15:09:52.220Z,101821.28
2023-02-11T15:12:55.725Z,101818.97
2023-02-11T15:16:02.715Z,101812.50
2023-02-11T15:19:07.415Z,101817.97
2023-02-11T15:22:20.360Z,101816.06
2023-02-11T15:25:24.218Z,101820.91
2023-02-11T15:28:30.096Z,101822.16
2023-02-11T15:31:35.084Z,101817.13
2023-02-11T15:34:38.388Z,101812.53
2023-02-11T15:37:41.371Z,101806.69
2023-02-11T15:41:01.006Z,101815.28
2023-02-11T15:44:04.558Z,101811.19
2023-02-11T15:47:11.171Z,101806.37
2023-02-11T15:50:22.865Z,101803.03
2023-02-11T15:53:40.675Z,101793.94
2023-02-11T15:56:45.235Z,101784.72
2023-02-11T15:59:50.835Z,101786.72
2023-02-11T16:02:54.312Z,101769.03
2023-02-11T16:05:57.473Z,101773.63
2023-02-11T16:09:25.703Z,101772.87
2023-02-11T16:12:29.443Z,101775.06
2023-02-11T16:15:38.353Z,101788.47
2023-02-11T16:19:03.469Z,101777.38
2023-02-11T16:22:10.430Z,101780.22
2023-02-11T16:25:19.142Z,101785.75
2023-02-11T16:28:22.316Z,101785.87
2023-02-11T16:31:33.588Z,101786.81
2023-02-11T16:34:36.931Z,101773.91
2023-02-11T16:37:40.026Z,101791.41
2023-02-11T16:40:44.611Z,101787.94
2023-02-11T16:43:47.622Z,101797.00
2023-02-11T16:46:50.678Z,101802.53
2023-02-11T16:49:53.666Z,101800.03
2023-02-11T16:52:56.952Z,101791.44
2023-02-11T16:55:59.863Z,101792.91
2023-02-11T16:59:03.186Z,101790.41
2023-02-11T17:02:14.886Z,101782.97
2023-02-11T17:05:20.493Z,101790.38
2023-02-11T17:08:23.673Z,101784.09
2023-02-11T17:11:26.592Z,101779.50
2023-02-11T17:14:29.850Z,101790.88
2023-02-11T17:17:32.541Z,101795.28
2023-02-11T17:20:35.697Z,101801.97
2023-02-11T17:23:39.178Z,101801.34
2023-02-11T17:26:42.704Z,101804.91
2023-02-11T17:29:45.975Z,101800.00
2023-02-11T17:32:49.864Z,101812.25
2023-02-11T17:35:53.081Z,101791.44
2023-02-11T17:38:56.558Z,101799.44
2023-02-11T17:41:59.622Z,101786.59
2023-02-11T17:45:02.381Z,101785.53
2023-02-11T17:48:06.197Z,101801.78
2023-02-11T17:51:27.981Z,101795.69
2023-02-11T17:54:30.921Z,101794.56
2023-02-11T17:57:34.616Z,101799.56
2023-02-11T18:00:37.655Z,101787.31
2023-02-11T18:03:40.696Z,101784.91
2023-02-11T18:06:44.144Z,101776.34
2023-02-11T18:09:47.709Z,101776.84
2023-02-11T18:12:50.828Z,101767.53
2023-02-11T18:15:53.700Z,101768.38
2023-02-11T18:18:58.615Z,101763.69
2023-02-11T18:22:01.719Z,101769.75
2023-02-11T18:25:05.931Z,101765.25
2023-02-11T18:28:08.812Z,101755.94
2023-02-11T18:31:11.929Z,101766.81
2023-02-11T18:34:16.064Z,101773.50
2023-02-11T18:37:20.233Z,101774.03
2023-02-11T18:40:22.938Z,101775.72
2023-02-11T18:43:33.835Z,101781.97
2023-02-11T18:46:36.912Z,101781.78
2023-02-11T18:49:39.735Z,101780.84
2023-02-11T18:52:43.842Z,101775.50
2023-02-11T18:55:53.009Z,101778.22
2023-02-11T18:59:01.475Z,101779.69
2023-02-11T19:02:09.776Z,101781.78
2023-02-11T19:05:19.749Z,101756.88
2023-02-11T19:08:23.410Z,101792.13
2023-02-11T19:11:49.122Z,101794.22
2023-02-11T19:14:52.161Z,101802.28
2023-02-11T19:17:55.209Z,101791.62
2023-02-11T19:21:00.933Z,101792.87
2023-02-11T19:24:07.965Z,101761.31
2023-02-11T19:27:11.674Z,101791.41
2023-02-11T19:30:14.792Z,101810.44
2023-02-11T19:33:17.599Z,101807.50
2023-02-11T19:36:21.537Z,101810.56
2023-02-11T19:39:24.987Z,101811.19
2023-02-11T19:42:28.368Z,101814.41
2023-02-11T19:45:31.631Z,101808.56
2023-02-11T19:48:34.932Z,101820.81
2023-02-11T19:51:41.066Z,101814.00
2023-02-11T19:54:55.330Z,101821.09
2023-02-11T19:58:05.100Z,101822.38
2023-02-11T20:01:12.284Z,101813.78
2023-02-11T20:04:18.450Z,101813.06
2023-02-11T20:07:21.410Z,101809.28
2023-02-11T20:10:25.129Z,101796.00
2023-02-11T20:13:30.186Z,101809.81
2023-02-11T20:16:46.801Z,101812.13
2023-02-11T20:19:51.898Z,101813.28
2023-02-11T20:22:54.982Z,101817.16
2023-02-11T20:25:57.922Z,101806.06
2023-02-11T20:29:02.640Z,101802.59
2023-02-11T20:32:06.688Z,101813.37
2023-02-11T20:35:10.097Z,101809.31
2023-02-11T20:38:13.052Z,101805.53
2023-02-11T20:41:19.001Z,101812.03
2023-02-11T20:44:22.525Z,101803.25
2023-02-11T20:47:25.581Z,101792.25
2023-02-11T20:50:28.682Z,101801.03
2023-02-11T20:53:32.928Z,101795.69
2023-02-11T20:56:37.258Z,101790.56
2023-02-11T20:59:40.364Z,101793.72
2023-02-11T21:02:43.099Z,101797.59
2023-02-11T21:05:46.104Z,101792.87
2023-02-11T21:08:49.594Z,101807.84
2023-02-11T21:11:53.292Z,101806.91
2023-02-11T21:14:56.690Z,101788.69
2023-02-11T21:17:59.651Z,101799.66
2023-02-11T21:21:04.298Z,101795.47
2023-02-11T21:24:09.345Z,101791.41
2023-02-11T21:27:12.375Z,101790.00
2023-02-11T21:30:15.343Z,101794.38
2023-02-11T21:33:18.310Z,101796.06
2023-02-11T21:36:22.238Z,101801.69
2023-02-11T21:39:25.579Z,101802.94
2023-02-11T21:42:28.300Z,101815.72
2023-02-11T21:45:32.432Z,101816.97
2023-02-11T21:48:35.695Z,101810.59
2023-02-11T21:51:39.945Z,101810.16
2023-02-11T21:54:42.750Z,101809.72
2023-02-11T21:57:45.719Z,101820.19
2023-02-11T22:00:48.474Z,101822.78
2023-02-11T22:03:51.669Z,101826.34
2023-02-11T22:06:54.338Z,101818.50
2023-02-11T22:09:57.099Z,101827.28
2023-02-11T22:12:59.766Z,101841.41
2023-02-11T22:16:05.228Z,101829.38
2023-02-11T22:19:07.954Z,101836.87
2023-02-11T22:22:10.851Z,101843.47
2023-02-11T22:25:13.728Z,101843.72
2023-02-11T22:28:20.140Z,101855.09
2023-02-11T22:31:25.791Z,101849.78
2023-02-11T22:34:28.620Z,101843.72
2023-02-11T22:37:31.358Z,101855.53
2023-02-11T22:40:34.051Z,101849.63
2023-02-11T22:43:38.054Z,101843.00
2023-02-11T22:46:41.182Z,101846.56
2023-02-11T22:49:43.906Z,101852.00
2023-02-11T22:52:47.126Z,101864.72
2023-02-11T22:55:53.424Z,101859.50
2023-02-11T22:59:00.863Z,101862.81
2023-02-11T23:02:03.616Z,101866.47
2023-02-11T23:05:07.239Z,101852.56
2023-02-11T23:08:11.108Z,101864.44
2023-02-11T23:11:20.092Z,101865.38
2023-02-11T23:14:23.317Z,101862.75
2023-02-11T23:17:26.429Z,101863.59
2023-02-11T23:20:29.146Z,101856.19
2023-02-11T23:23:31.836Z,101851.72
2023-02-11T23:26:35.130Z,101857.53
2023-02-11T23:29:40.982Z,101868.63
2023-02-11T23:32:43.718Z,101857.34
2023-02-11T23:35:49.642Z,101850.22
2023-02-11T23:38:52.553Z,101843.03
2023-02-11T23:41:59.133Z,101841.91
2023-02-11T23:45:02.045Z,101858.41
2023-02-11T23:48:05.150Z,101854.66
2023-02-11T23:51:09.852Z,101848.81
2023-02-11T23:54:13.341Z,101853.59
2023-02-11T23:57:16.532Z,101849.50
